createdAt,value
2023-04-23T00:01:19.212Z,14.45
2023-04-23T00:03:48.754Z,13.15
2023-04-23T00:06:17.710Z,12.82
2023-04-23T00:08:44.827Z,12.52
2023-04-23T00:11:11.854Z,12.60
2023-04-23T00:13:39.074Z,11.82
2023-04-23T00:16:06.502Z,12.02
2023-04-23T00:18:33.809Z,11.50
2023-04-23T00:21:00.830Z,11.45
2023-04-23T00:23:28.823Z,11.73
2023-04-23T00:25:55.626Z,10.70
2023-04-23T00:28:22.855Z,11.07
2023-04-23T00:30:49.809Z,12.07
2023-04-23T00:33:16.785Z,12.52
2023-04-23T00:35:44.278Z,12.38
2023-04-23T00:38:11.585Z,11.38
2023-04-23T00:40:38.503Z,12.55
2023-04-23T00:43:05.590Z,16.17
2023-04-23T00:45:32.542Z,16.23
2023-04-23T00:47:59.867Z,16.42
2023-04-23T00:50:27.311Z,16.02
2023-04-23T00:52:54.583Z,17.73
2023-04-23T00:55:21.790Z,18.30
2023-04-23T00:57:49.272Z,18.20
2023-04-23T01:00:16.272Z,20.00
2023-04-23T01:02:44.521Z,19.23
2023-04-23T01:05:14.907Z,20.38
2023-04-23T01:07:43.730Z,21.48
2023-04-23T01:10:12.252Z,20.98
2023-04-23T01:12:39.652Z,21.67
2023-04-23T01:15:08.919Z,21.98
2023-04-23T01:17:37.192Z,23.15
2023-04-23T01:20:06.609Z,21.60
2023-04-23T01:22:36.795Z,20.45
2023-04-23T01:25:04.503Z,20.75
2023-04-23T01:27:31.883Z,19.27
2023-04-23T01:29:58.962Z,17.92
2023-04-23T01:32:26.204Z,17.23
2023-04-23T01:34:54.523Z,19.17
2023-04-23T01:37:21.806Z,16.40
2023-04-23T01:39:48.655Z,17.23
2023-04-23T01:42:16.333Z,14.40
2023-04-23T01:44:43.645Z,14.85
2023-04-23T01:47:11.289Z,13.25
2023-04-23T01:49:38.360Z,13.25
2023-04-23T01:52:05.223Z,10.48
2023-04-23T01:54:32.494Z,10.82
2023-04-23T01:56:59.403Z,10.73
2023-04-23T01:59:26.672Z,11.98
2023-04-23T02:01:54.024Z,11.52
2023-04-23T02:04:21.332Z,10.32
2023-04-23T02:06:50.835Z,9.10
2023-04-23T02:09:17.737Z,9.20
2023-04-23T02:11:44.603Z,8.65
2023-04-23T02:14:11.538Z,9.30
2023-04-23T02:16:38.639Z,9.23
2023-04-23T02:19:06.357Z,8.80
2023-04-23T02:21:33.673Z,8.52
2023-04-23T02:24:00.928Z,8.65
2023-04-23T02:26:29.209Z,8.60
2023-04-23T02:28:56.419Z,8.63
2023-04-23T02:31:23.642Z,8.50
2023-04-23T02:33:50.522Z,8.05
2023-04-23T02:36:18.040Z,8.02
2023-04-23T02:38:45.698Z,8.02
2023-04-23T02:41:12.962Z,8.45
2023-04-23T02:43:39.841Z,7.95
2023-04-23T02:46:10.029Z,7.97
2023-04-23T02:48:41.772Z,8.10
2023-04-23T02:51:13.292Z,8.27
2023-04-23T02:53:40.497Z,8.65
2023-04-23T02:56:07.921Z,9.05
2023-04-23T02:58:34.913Z,8.50
2023-04-23T03:01:02.598Z,9.02
2023-04-23T03:03:32.436Z,10.90
2023-04-23T03:06:02.021Z,9.30
2023-04-23T03:08:28.987Z,9.90
2023-04-23T03:10:56.259Z,10.90
2023-04-23T03:13:23.133Z,12.07
2023-04-23T03:15:50.965Z,13.32
2023-04-23T03:18:18.233Z,14.35
2023-04-23T03:20:45.096Z,13.95
2023-04-23T03:23:12.275Z,13.98
2023-04-23T03:25:39.261Z,12.25
2023-04-23T03:28:06.584Z,11.75
2023-04-23T03:30:33.552Z,10.88
2023-04-23T03:33:02.510Z,11.20
2023-04-23T03:35:29.411Z,10.13
2023-04-23T03:37:56.322Z,10.27
2023-04-23T03:40:23.189Z,10.98
2023-04-23T03:42:50.252Z,11.05
2023-04-23T03:45:17.448Z,10.73
2023-04-23T03:47:44.632Z,10.30
2023-04-23T03:50:14.851Z,11.35
2023-04-23T03:52:42.129Z,10.85
2023-04-23T03:55:09.777Z,11.10
2023-04-23T03:57:37.366Z,11.77
2023-04-23T04:00:08.331Z,13.00
2023-04-23T04:02:35.992Z,11.30
2023-04-23T04:05:03.302Z,12.10
2023-04-23T04:07:30.705Z,12.60
2023-04-23T04:09:58.363Z,12.95
2023-04-23T04:12:25.823Z,12.88
2023-04-23T04:14:52.635Z,13.10
2023-04-23T04:17:19.528Z,13.93
2023-04-23T04:19:46.730Z,11.48
2023-04-23T04:22:13.552Z,12.10
2023-04-23T04:24:42.249Z,12.35
2023-04-23T04:27:09.986Z,12.90
2023-04-23T04:29:37.206Z,13.07
2023-04-23T04:32:05.837Z,11.77
2023-04-23T04:34:33.103Z,11.68
2023-04-23T04:37:00.860Z,11.95
2023-04-23T04:39:27.699Z,10.90
2023-04-23T04:41:54.933Z,11.10
2023-04-23T04:44:22.346Z,8.73
2023-04-23T04:46:49.299Z,11.32
2023-04-23T04:49:18.349Z,9.52
2023-04-23T04:51:45.662Z,8.65
2023-04-23T04:54:12.936Z,9.43
2023-04-23T04:56:40.237Z,9.18
2023-04-23T04:59:07.787Z,9.50
2023-04-23T05:01:35.476Z,9.35
2023-04-23T05:04:02.695Z,9.52
2023-04-23T05:06:29.801Z,9.20
2023-04-23T05:08:57.113Z,9.13
2023-04-23T05:11:23.943Z,9.90
2023-04-23T05:13:51.625Z,8.45
2023-04-23T05:16:19.304Z,8.63
2023-04-23T05:18:46.708Z,8.75
2023-04-23T05:21:14.436Z,8.77
2023-04-23T05:23:41.726Z,9.27
2023-04-23T05:26:08.589Z,9.00
2023-04-23T05:28:35.784Z,8.55
2023-04-23T05:31:03.365Z,10.38
2023-04-23T05:33:33.405Z,8.85
2023-04-23T05:36:03.705Z,9.05
2023-04-23T05:38:31.022Z,9.82
2023-04-23T05:40:58.224Z,9.45
2023-04-23T05:43:25.569Z,9.18
2023-04-23T05:45:52.826Z,8.63
2023-04-23T05:48:19.629Z,9.63
2023-04-23T05:50:46.879Z,9.18
2023-04-23T05:53:14.051Z,8.93
2023-04-23T05:55:40.860Z,9.38
2023-04-23T05:58:08.126Z,8.80
2023-04-23T06:00:35.617Z,10.23
2023-04-23T06:03:03.001Z,9.32
2023-04-23T06:05:30.088Z,9.57
2023-04-23T06:07:56.954Z,9.65
2023-04-23T06:10:23.796Z,8.18
2023-04-23T06:12:50.828Z,8.63
2023-04-23T06:15:18.035Z,7.97
2023-04-23T06:17:44.886Z,8.55
2023-04-23T06:20:12.245Z,8.13
2023-04-23T06:22:39.232Z,7.28
2023-04-23T06:25:06.539Z,7.43
2023-04-23T06:27:33.956Z,8.68
2023-04-23T06:30:00.787Z,7.57
2023-04-23T06:32:27.688Z,5.57
2023-04-23T06:35:01.459Z,6.30
2023-04-23T06:37:30.892Z,5.82
2023-04-23T06:39:59.625Z,5.95
2023-04-23T06:42:26.922Z,5.22
2023-04-23T06:44:53.904Z,4.47
2023-04-23T06:47:20.729Z,5.10
2023-04-23T06:49:47.529Z,4.93
2023-04-23T06:52:14.736Z,4.75
2023-04-23T06:54:42.559Z,4.97
2023-04-23T06:57:09.922Z,8.73
2023-04-23T06:59:36.755Z,4.22
2023-04-23T07:02:03.694Z,4.53
2023-04-23T07:04:30.771Z,5.00
2023-04-23T07:06:58.419Z,4.50
2023-04-23T07:09:25.592Z,4.43
2023-04-23T07:11:52.720Z,3.33
2023-04-23T07:14:19.936Z,3.70
2023-04-23T07:16:47.205Z,4.03
2023-04-23T07:19:14.396Z,2.83
2023-04-23T07:21:41.198Z,3.05
2023-04-23T07:24:08.592Z,3.10
2023-04-23T07:26:36.264Z,2.90
2023-04-23T07:29:04.630Z,3.10
2023-04-23T07:31:31.931Z,3.35
2023-04-23T07:33:58.838Z,3.72
2023-04-23T07:36:26.423Z,3.67
2023-04-23T07:38:53.858Z,4.63
2023-04-23T07:41:20.925Z,3.45
2023-04-23T07:43:48.197Z,3.22
2023-04-23T07:46:15.220Z,4.78
2023-04-23T07:48:42.075Z,3.58
2023-04-23T07:51:09.265Z,2.38
2023-04-23T07:53:36.101Z,2.85
2023-04-23T07:56:03.299Z,2.75
2023-04-23T07:58:30.588Z,2.03
2023-04-23T08:00:58.137Z,2.72
2023-04-23T08:03:25.328Z,2.88
2023-04-23T08:05:52.386Z,2.90
2023-04-23T08:08:19.251Z,2.45
2023-04-23T08:10:46.693Z,2.55
2023-04-23T08:13:13.995Z,2.78
2023-04-23T08:15:40.888Z,3.90
2023-04-23T08:18:08.137Z,2.95
2023-04-23T08:20:34.969Z,2.75
2023-04-23T08:23:02.351Z,2.17
2023-04-23T08:25:29.193Z,2.45
2023-04-23T08:27:56.135Z,2.95
2023-04-23T08:30:23.237Z,2.35
2023-04-23T08:32:53.767Z,2.38
2023-04-23T08:35:21.149Z,2.28
2023-04-23T08:37:48.459Z,2.22
2023-04-23T08:40:16.806Z,2.00
2023-04-23T08:42:45.998Z,2.20
2023-04-23T08:45:13.920Z,2.40
2023-04-23T08:47:44.471Z,2.53
2023-04-23T08:50:13.235Z,2.00
2023-04-23T08:52:46.794Z,2.75
2023-04-23T08:55:16.071Z,2.10
2023-04-23T08:57:43.040Z,2.50
2023-04-23T09:00:11.797Z,3.13
2023-04-23T09:02:41.754Z,2.03
2023-04-23T09:05:09.353Z,2.38
2023-04-23T09:07:37.486Z,2.33
2023-04-23T09:10:06.522Z,2.03
2023-04-23T09:12:36.264Z,2.20
2023-04-23T09:15:10.613Z,2.45
2023-04-23T09:17:44.173Z,2.15
2023-04-23T09:20:12.636Z,3.05
2023-04-23T09:22:51.508Z,2.00
2023-04-23T09:25:20.331Z,2.42
2023-04-23T09:27:49.363Z,2.03
2023-04-23T09:30:16.938Z,2.33
2023-04-23T09:32:46.205Z,2.58
2023-04-23T09:35:20.099Z,2.35
2023-04-23T09:37:50.189Z,3.03
2023-04-23T09:40:20.040Z,3.42
2023-04-23T09:42:53.224Z,2.58
2023-04-23T09:47:55.410Z,2.47
2023-04-23T09:50:36.898Z,2.90
2023-04-23T09:53:05.053Z,3.00
2023-04-23T09:55:40.914Z,2.80
2023-04-23T09:58:16.086Z,2.78
2023-04-23T10:00:43.455Z,2.88
2023-04-23T10:03:12.098Z,2.75
2023-04-23T10:08:16.155Z,3.17
2023-04-23T10:13:16.515Z,3.80
2023-04-23T10:15:46.616Z,3.10
2023-04-23T10:18:15.177Z,2.38
2023-04-23T10:20:43.108Z,3.05
2023-04-23T10:23:12.801Z,3.00
2023-04-23T10:25:40.311Z,3.30
2023-04-23T10:28:09.236Z,2.90
2023-04-23T10:30:37.251Z,2.90
2023-04-23T10:33:06.150Z,3.30
2023-04-23T10:35:38.483Z,3.00
2023-04-23T10:38:05.925Z,3.20
2023-04-23T10:40:34.128Z,3.10
2023-04-23T10:43:01.322Z,3.05
2023-04-23T10:45:30.946Z,3.67
2023-04-23T10:47:58.862Z,2.58
2023-04-23T10:50:30.842Z,2.85
2023-04-23T10:52:58.685Z,2.80
2023-04-23T10:55:30.746Z,2.75
2023-04-23T10:58:06.172Z,2.60
2023-04-23T11:00:43.325Z,2.53
2023-04-23T11:03:44.493Z,2.38
2023-04-23T11:06:38.000Z,3.00
2023-04-23T11:11:51.530Z,1.92
2023-04-23T11:14:18.791Z,2.97
2023-04-23T11:16:46.486Z,2.75
2023-04-23T11:19:13.433Z,2.45
2023-04-23T11:22:00.073Z,2.22
2023-04-23T11:24:41.930Z,2.17
2023-04-23T11:27:15.613Z,2.40
2023-04-23T11:29:45.149Z,2.65
2023-04-23T11:32:13.694Z,2.70
2023-04-23T11:34:43.555Z,2.75
2023-04-23T11:37:12.191Z,3.10
2023-04-23T11:39:44.210Z,2.58
2023-04-23T11:42:13.307Z,3.00
2023-04-23T11:44:45.024Z,3.00
2023-04-23T11:47:13.886Z,2.30
2023-04-23T11:49:42.975Z,2.53
2023-04-23T11:52:11.190Z,2.65
2023-04-23T11:54:41.108Z,3.50
2023-04-23T11:57:08.557Z,2.63
2023-04-23T11:59:35.657Z,2.67
2023-04-23T12:02:02.867Z,3.10
2023-04-23T12:04:31.505Z,2.60
2023-04-23T12:06:59.318Z,2.58
2023-04-23T12:09:28.871Z,2.90
2023-04-23T12:11:58.658Z,3.15
2023-04-23T12:14:30.696Z,3.45
2023-04-23T12:16:58.790Z,2.70
2023-04-23T12:19:31.098Z,3.15
2023-04-23T12:22:03.138Z,3.25
2023-04-23T12:24:51.802Z,2.67
2023-04-23T12:27:21.979Z,3.50
2023-04-23T12:29:50.909Z,2.72
2023-04-23T12:32:19.403Z,3.30
2023-04-23T12:34:54.182Z,3.08
2023-04-23T12:37:26.814Z,3.10
2023-04-23T12:39:56.438Z,3.00
2023-04-23T12:42:23.416Z,3.50
2023-04-23T12:44:51.740Z,3.28
2023-04-23T12:47:22.213Z,3.05
2023-04-23T12:49:53.747Z,3.03
2023-04-23T12:52:21.515Z,3.28
2023-04-23T12:54:52.709Z,2.75
2023-04-23T12:57:23.332Z,3.15
2023-04-23T12:59:50.872Z,3.20
2023-04-23T13:02:18.258Z,3.47
2023-04-23T13:04:45.395Z,3.10
2023-04-23T13:07:12.590Z,2.95
2023-04-23T13:09:39.783Z,3.08
2023-04-23T13:12:07.046Z,3.70
2023-04-23T13:14:34.300Z,3.20
2023-04-23T13:17:01.737Z,3.10
2023-04-23T13:19:28.609Z,3.22
2023-04-23T13:21:55.440Z,3.40
2023-04-23T13:24:22.774Z,3.95
2023-04-23T13:26:50.311Z,3.47
2023-04-23T13:29:17.215Z,3.75
2023-04-23T13:31:44.466Z,4.72
2023-04-23T13:34:11.889Z,2.90
2023-04-23T13:36:41.504Z,3.03
2023-04-23T13:39:09.433Z,3.08
2023-04-23T13:41:36.481Z,2.85
2023-04-23T13:44:03.625Z,2.97
2023-04-23T13:46:30.613Z,3.20
2023-04-23T13:48:57.805Z,3.08
2023-04-23T13:51:34.890Z,2.92
2023-04-23T13:54:03.122Z,3.15
2023-04-23T13:56:30.833Z,3.10
2023-04-23T14:01:33.987Z,2.95
2023-04-23T14:04:00.959Z,3.55
2023-04-23T14:06:27.977Z,3.08
2023-04-23T14:08:55.166Z,2.92
2023-04-23T14:11:22.777Z,2.83
2023-04-23T14:13:49.749Z,3.22
2023-04-23T14:16:17.586Z,3.00
2023-04-23T14:18:44.446Z,3.22
2023-04-23T14:21:11.311Z,2.97
2023-04-23T14:24:17.082Z,3.33
2023-04-23T14:26:49.177Z,2.72
2023-04-23T14:29:29.422Z,2.88
2023-04-23T14:31:57.790Z,3.15
2023-04-23T14:34:24.629Z,3.42
2023-04-23T14:36:53.344Z,3.38
2023-04-23T14:39:21.331Z,3.00
2023-04-23T14:41:48.143Z,3.22
2023-04-23T14:44:15.047Z,3.40
2023-04-23T14:46:42.262Z,3.13
2023-04-23T14:49:09.067Z,3.60
2023-04-23T14:51:37.507Z,4.60
2023-04-23T14:54:05.246Z,3.47
2023-04-23T14:56:32.473Z,3.58
2023-04-23T14:58:59.283Z,3.03
2023-04-23T15:01:26.604Z,3.42
2023-04-23T15:03:53.792Z,2.90
2023-04-23T15:06:21.313Z,2.90
2023-04-23T15:08:48.604Z,3.15
2023-04-23T15:11:15.529Z,3.38
2023-04-23T15:13:49.661Z,2.97
2023-04-23T15:16:46.826Z,3.50
2023-04-23T15:19:14.939Z,3.47
2023-04-23T15:21:43.240Z,3.20
2023-04-23T15:24:10.652Z,3.60
2023-04-23T15:26:38.073Z,3.65
2023-04-23T15:29:08.964Z,3.40
2023-04-23T15:31:37.178Z,2.97
2023-04-23T15:34:06.306Z,3.53
2023-04-23T15:36:34.808Z,3.38
2023-04-23T15:39:01.806Z,4.05
2023-04-23T15:41:28.991Z,3.33
2023-04-23T15:43:56.668Z,2.95
2023-04-23T15:46:24.118Z,3.60
2023-04-23T15:48:51.183Z,3.55
2023-04-23T15:51:18.382Z,3.22
2023-04-23T15:53:45.628Z,3.22
2023-04-23T15:56:12.739Z,3.30
2023-04-23T15:58:39.540Z,4.00
2023-04-23T16:01:07.538Z,3.28
2023-04-23T16:03:35.258Z,3.88
2023-04-23T16:06:02.291Z,3.22
2023-04-23T16:08:29.517Z,3.42
2023-04-23T16:10:58.172Z,3.20
2023-04-23T16:13:25.310Z,3.28
2023-04-23T16:15:52.749Z,3.42
2023-04-23T16:18:19.713Z,3.67
2023-04-23T16:20:47.232Z,3.10
2023-04-23T16:23:14.538Z,3.08
2023-04-23T16:25:41.588Z,3.10
2023-04-23T16:28:08.944Z,3.38
2023-04-23T16:30:36.025Z,3.55
2023-04-23T16:33:03.387Z,4.00
2023-04-23T16:35:30.424Z,3.22
2023-04-23T16:37:57.689Z,3.58
2023-04-23T16:40:24.751Z,3.90
2023-04-23T16:42:52.035Z,4.30
2023-04-23T16:45:23.166Z,3.90
2023-04-23T16:47:51.012Z,3.53
2023-04-23T16:50:18.144Z,3.65
2023-04-23T16:52:45.509Z,3.83
2023-04-23T16:55:13.284Z,3.88
2023-04-23T16:57:40.403Z,4.22
2023-04-23T17:00:08.098Z,3.80
2023-04-23T17:02:35.288Z,3.67
2023-04-23T17:05:02.640Z,3.88
2023-04-23T17:07:29.982Z,4.28
2023-04-23T17:09:57.521Z,4.15
2023-04-23T17:12:24.418Z,4.85
2023-04-23T17:14:51.227Z,4.35
2023-04-23T17:17:18.512Z,4.13
2023-04-23T17:19:45.882Z,4.68
2023-04-23T17:22:13.231Z,4.70
2023-04-23T17:24:40.823Z,5.40
2023-04-23T17:27:08.421Z,4.88
2023-04-23T17:29:35.989Z,5.22
2023-04-23T17:32:03.096Z,5.55
2023-04-23T17:34:30.013Z,7.00
2023-04-23T17:36:57.249Z,6.65
2023-04-23T17:39:25.669Z,6.30
2023-04-23T17:41:53.052Z,5.43
2023-04-23T17:44:20.297Z,5.45
2023-04-23T17:46:47.690Z,5.20
2023-04-23T17:49:14.876Z,5.32
2023-04-23T17:51:41.750Z,4.25
2023-04-23T17:54:08.701Z,4.95
2023-04-23T17:56:36.061Z,4.50
2023-04-23T17:59:02.928Z,4.32
2023-04-23T18:01:30.282Z,4.60
2023-04-23T18:03:57.474Z,4.97
2023-04-23T18:06:24.855Z,5.50
2023-04-23T18:08:52.466Z,5.70
2023-04-23T18:11:19.306Z,6.07
2023-04-23T18:13:46.417Z,6.38
2023-04-23T18:16:14.155Z,9.63
2023-04-23T18:18:41.388Z,8.75
2023-04-23T18:21:08.733Z,8.52
2023-04-23T18:23:36.146Z,8.57
2023-04-23T18:26:03.527Z,7.40
2023-04-23T18:28:30.778Z,7.45
2023-04-23T18:31:02.605Z,6.35
2023-04-23T18:33:49.217Z,6.57
2023-04-23T18:36:46.765Z,9.60
2023-04-23T18:39:13.601Z,8.55
2023-04-23T18:41:41.156Z,7.90
2023-04-23T18:44:08.038Z,6.82
2023-04-23T18:46:35.351Z,6.57
2023-04-23T18:49:16.045Z,6.95
2023-04-23T18:51:44.876Z,6.82
2023-04-23T18:54:15.101Z,7.10
2023-04-23T18:56:42.157Z,6.53
2023-04-23T18:59:09.026Z,7.30
2023-04-23T19:01:36.605Z,7.68
2023-04-23T19:04:03.926Z,8.38
2023-04-23T19:06:31.408Z,7.88
2023-04-23T19:08:59.103Z,8.07
2023-04-23T19:11:30.319Z,8.10
2023-04-23T19:13:57.184Z,6.97
2023-04-23T19:16:24.503Z,7.97
2023-04-23T19:18:51.645Z,7.90
2023-04-23T19:21:18.504Z,7.53
2023-04-23T19:23:45.857Z,8.10
2023-04-23T19:26:13.327Z,7.60
2023-04-23T19:28:40.181Z,41.13
2023-04-23T19:31:07.754Z,7.72
2023-04-23T19:33:35.326Z,7.00
2023-04-23T19:36:02.534Z,7.60
2023-04-23T19:38:29.337Z,7.20
2023-04-23T19:40:57.195Z,6.93
2023-04-23T19:43:24.472Z,6.60
2023-04-23T19:45:51.894Z,7.32
2023-04-23T19:48:18.766Z,6.50
2023-04-23T19:50:46.422Z,7.78
2023-04-23T19:53:13.636Z,7.18
2023-04-23T19:55:41.173Z,6.28
2023-04-23T19:58:08.367Z,7.25
2023-04-23T20:00:41.313Z,6.43
2023-04-23T20:03:08.902Z,6.45
2023-04-23T20:05:36.323Z,6.45
2023-04-23T20:08:08.303Z,6.18
2023-04-23T20:10:35.124Z,5.82
2023-04-23T20:13:02.177Z,6.57
2023-04-23T20:15:29.462Z,5.88
2023-04-23T20:17:56.885Z,5.78
2023-04-23T20:20:25.742Z,6.00
2023-04-23T20:22:52.674Z,6.32
2023-04-23T20:25:22.172Z,6.22
2023-04-23T20:27:51.097Z,6.07
2023-04-23T20:30:18.612Z,6.50
2023-04-23T20:32:45.949Z,5.80
2023-04-23T20:35:13.762Z,6.00
2023-04-23T20:37:43.159Z,6.50
2023-04-23T20:40:14.506Z,6.57
2023-04-23T20:42:42.474Z,6.63
2023-04-23T20:45:10.750Z,6.80
2023-04-23T20:47:37.728Z,6.45
2023-04-23T20:50:05.163Z,6.78
2023-04-23T20:52:33.487Z,7.28
2023-04-23T20:55:00.764Z,7.38
2023-04-23T20:57:28.038Z,6.50
2023-04-23T20:59:54.855Z,6.60
2023-04-23T21:02:21.750Z,6.28
2023-04-23T21:04:49.082Z,5.70
2023-04-23T21:07:16.282Z,5.90
2023-04-23T21:09:43.358Z,5.38
2023-04-23T21:12:10.788Z,5.18
2023-04-23T21:14:37.997Z,6.65
2023-04-23T21:17:04.807Z,5.82
2023-04-23T21:19:32.022Z,5.80
2023-04-23T21:21:59.294Z,6.53
2023-04-23T21:24:26.544Z,5.72
2023-04-23T21:26:53.835Z,7.43
2023-04-23T21:29:21.044Z,6.32
2023-04-23T21:31:51.203Z,6.90
2023-04-23T21:34:19.560Z,6.95
2023-04-23T21:36:46.500Z,7.28
2023-04-23T21:39:13.976Z,7.05
2023-04-23T21:41:41.407Z,6.75
2023-04-23T21:44:10.989Z,5.97
2023-04-23T21:46:37.908Z,7.07
2023-04-23T21:49:05.673Z,7.07
2023-04-23T21:51:37.037Z,7.68
2023-04-23T21:54:05.855Z,7.70
2023-04-23T21:56:33.585Z,7.70
2023-04-23T21:59:00.941Z,6.88
2023-04-23T22:01:28.088Z,6.45
2023-04-23T22:03:55.580Z,7.47
2023-04-23T22:06:23.251Z,7.45
2023-04-23T22:08:51.257Z,6.90
2023-04-23T22:11:19.254Z,7.53
2023-04-23T22:13:46.147Z,6.28
2023-04-23T22:16:26.841Z,6.47
2023-04-23T22:18:56.535Z,6.85
2023-04-23T22:21:23.406Z,7.38
2023-04-23T22:23:51.131Z,7.50
2023-04-23T22:26:18.033Z,6.53
2023-04-23T22:28:45.309Z,6.68
2023-04-23T22:31:12.511Z,7.13
2023-04-23T22:33:39.718Z,6.53
2023-04-23T22:36:07.067Z,6.20
2023-04-23T22:38:34.441Z,6.63
2023-04-23T22:41:02.261Z,5.88
2023-04-23T22:43:29.572Z,6.47
2023-04-23T22:45:57.101Z,6.45
2023-04-23T22:48:24.261Z,6.65
2023-04-23T22:50:51.732Z,5.85
2023-04-23T22:53:21.712Z,5.80
2023-04-23T22:55:49.637Z,6.13
2023-04-23T22:58:17.467Z,6.53
2023-04-23T23:00:44.283Z,6.40
2023-04-23T23:03:11.906Z,6.65
2023-04-23T23:05:38.881Z,6.72
2023-04-23T23:08:06.813Z,6.20
2023-04-23T23:10:33.654Z,6.63
2023-04-23T23:13:01.382Z,6.85
2023-04-23T23:15:28.651Z,6.43
2023-04-23T23:17:56.152Z,6.30
2023-04-23T23:20:23.190Z,6.65
2023-04-23T23:22:50.052Z,6.25
2023-04-23T23:25:17.271Z,6.63
2023-04-23T23:27:44.262Z,6.50
2023-04-23T23:30:11.365Z,6.35
2023-04-23T23:32:38.737Z,5.90
2023-04-23T23:35:06.475Z,6.70
2023-04-23T23:37:33.717Z,5.93
2023-04-23T23:40:00.600Z,6.10
2023-04-23T23:42:27.917Z,6.00
2023-04-23T23:44:55.199Z,6.13
2023-04-23T23:47:22.499Z,6.72
2023-04-23T23:49:49.559Z,5.90
2023-04-23T23:52:16.370Z,5.63
2023-04-23T23:54:43.624Z,5.90
2023-04-23T23:57:11.023Z,5.40
2023-04-23T23:59:38.258Z,6.03
